Airfield :
LOGIN :

Register | Disclaimer

   EN    FR    IT 

 










Legend :    VFR   Marginal VFR   IFR   Intensive IFR   Very Intensive IFR
Visi :
Ceiling :
>= 8 km
>= 3000ft
5 to 8 km
1000 to 3000 ft
1500m to 5 km
500 to 1000 ft
800 to 1500m
200 to 500 ft
< 800m
< 200 ft
Symbols :   Thunderstorms  Fog  Heavy snow  Heavy precipitations  Wind > 20 kt
SIGMETs :     Misc.  Thunderstorms  Icing  Turbulence  Mountain Waves  Volcanic Ashes






- Airport Elevation : 32 ft
- IATA code : LKZ


EGUL - RAF Lakenheath

METAR N/A
TAF TAF EGUL
Valid from the 16 at 20:00 until the 18 at 02:00 UTC


162000Z 1620/1802 VRB03KT 9999 BKN030 QNH2969INS
BECMG 1621/1622 VRB03KT 5000 BR BKN020 QNH2978INS
TEMPO 1700/1709 3200 BR BKN010
BECMG 1708/1709 27005KT 9000 -SHRA BKN008 QNH2979INS
BECMG 1721/1722 36005KT 9000 -SHRA BKN005 QNH2984INS TX07/1712Z TN04/1705Z



MET'MAP, your aeronautical weather chart ! - Copyright ORBIFLY December 2007 - Disclaimer

ORBIFLY MET'MAP TEAM :

Programming & Development : Alexandra Zaïnal
Concept & Development : Baudouin d'Aumeries
Co-Development & Prog : Marc-Olivier Méhu
Technical & hardware support : Manuel Goepfert

Contact : metmap@orbifly.com




SOURCES & CREDITS :

   NOAA